createdAt,value
2023-09-18T00:01:05.618Z,101528.84
2023-09-18T00:03:32.361Z,101535.94
2023-09-18T00:05:59.357Z,101545.53
2023-09-18T00:08:25.986Z,101547.91
2023-09-18T00:10:52.429Z,101548.44
2023-09-18T00:13:19.206Z,101535.38
2023-09-18T00:15:45.933Z,101537.72
2023-09-18T00:18:13.563Z,101545.56
2023-09-18T00:20:40.500Z,101540.28
2023-09-18T00:23:07.338Z,101532.41
2023-09-18T00:25:33.924Z,101536.13
2023-09-18T00:28:00.850Z,101548.66
2023-09-18T00:30:27.529Z,101536.22
2023-09-18T00:32:54.503Z,101544.31
2023-09-18T00:35:21.249Z,101548.75
2023-09-18T00:37:48.114Z,101546.53
2023-09-18T00:40:14.633Z,101561.72
2023-09-18T00:42:40.954Z,101558.94
2023-09-18T00:45:07.742Z,101561.53
2023-09-18T00:47:34.736Z,101558.75
2023-09-18T00:50:01.765Z,101570.31
2023-09-18T00:52:28.642Z,101564.06
2023-09-18T00:54:55.546Z,101568.22
2023-09-18T00:57:22.317Z,101582.13
2023-09-18T00:59:48.927Z,101582.00
2023-09-18T01:02:15.798Z,101575.53
2023-09-18T01:04:42.603Z,101564.84
2023-09-18T01:07:09.282Z,101560.34
2023-09-18T01:09:36.310Z,101565.78
2023-09-18T01:12:03.194Z,101573.00
2023-09-18T01:14:30.376Z,101580.66
2023-09-18T01:16:57.016Z,101594.69
2023-09-18T01:19:23.918Z,101584.16
2023-09-18T01:21:50.881Z,101589.97
2023-09-18T01:24:17.724Z,101599.44
2023-09-18T01:26:44.693Z,101588.91
2023-09-18T01:29:11.662Z,101560.66
2023-09-18T01:31:38.362Z,101541.84
2023-09-18T01:34:05.192Z,101536.66
2023-09-18T01:36:31.610Z,101552.59
2023-09-18T01:38:58.275Z,101570.31
2023-09-18T01:41:25.342Z,101575.53
2023-09-18T01:43:52.036Z,101574.78
2023-09-18T01:46:18.810Z,101559.16
2023-09-18T01:48:45.800Z,101540.00
2023-09-18T01:51:12.524Z,101526.31
2023-09-18T01:53:39.460Z,101531.28
2023-09-18T01:56:06.315Z,101530.63
2023-09-18T01:58:32.985Z,101528.91
2023-09-18T02:01:00.261Z,101532.44
2023-09-18T02:03:34.561Z,101527.13
2023-09-18T02:06:14.075Z,101525.31
2023-09-18T02:08:40.873Z,101531.38
2023-09-18T02:11:07.916Z,101526.06
2023-09-18T02:13:34.520Z,101536.69
2023-09-18T02:16:01.156Z,101544.53
2023-09-18T02:18:28.104Z,101543.78
2023-09-18T02:20:54.645Z,101542.94
2023-09-18T02:23:21.284Z,101531.16
2023-09-18T02:25:47.810Z,101511.19
2023-09-18T02:28:14.701Z,101499.75
2023-09-18T02:30:41.552Z,101483.09
2023-09-18T02:33:08.369Z,101468.00
2023-09-18T02:35:35.369Z,101441.03
2023-09-18T02:38:02.066Z,101459.91
2023-09-18T02:40:28.813Z,101482.19
2023-09-18T02:42:55.392Z,101491.13
2023-09-18T02:45:22.118Z,101495.38
2023-09-18T02:47:48.707Z,101484.03
2023-09-18T02:50:15.276Z,101472.44
2023-09-18T02:52:42.005Z,101476.81
2023-09-18T02:55:08.479Z,101481.25
2023-09-18T02:57:35.206Z,101493.66
2023-09-18T03:00:01.803Z,101506.75
2023-09-18T03:02:28.449Z,101506.53
2023-09-18T03:04:55.252Z,101524.69
2023-09-18T03:07:21.820Z,101533.19
2023-09-18T03:09:48.349Z,101531.09
2023-09-18T03:12:14.786Z,101547.78
2023-09-18T03:14:41.233Z,101549.59
2023-09-18T03:17:07.714Z,101545.88
2023-09-18T03:19:34.424Z,101584.00
2023-09-18T03:22:00.933Z,101599.25
2023-09-18T03:24:27.420Z,101608.19
2023-09-18T03:26:54.081Z,101592.34
2023-09-18T03:29:20.808Z,101577.16
2023-09-18T03:31:47.570Z,101584.84
2023-09-18T03:34:14.274Z,101575.84
2023-09-18T03:36:40.918Z,101561.72
2023-09-18T03:39:07.536Z,101564.47
2023-09-18T03:41:34.184Z,101576.88
2023-09-18T03:44:00.963Z,101577.84
2023-09-18T03:46:27.428Z,101578.69
2023-09-18T03:48:54.290Z,101571.56
2023-09-18T03:51:20.836Z,101560.22
2023-09-18T03:53:47.405Z,101564.75
2023-09-18T03:56:14.117Z,101561.34
2023-09-18T03:58:40.694Z,101559.94
2023-09-18T04:01:07.336Z,101561.00
2023-09-18T04:03:34.042Z,101578.00
2023-09-18T04:06:00.690Z,101576.41
2023-09-18T04:08:27.399Z,101577.72
2023-09-18T04:10:54.054Z,101583.56
2023-09-18T04:13:20.656Z,101571.72
2023-09-18T04:15:47.342Z,101569.94
2023-09-18T04:18:14.065Z,101579.69
2023-09-18T04:20:40.693Z,101597.44
2023-09-18T04:23:07.379Z,101628.69
2023-09-18T04:25:33.990Z,101648.03
2023-09-18T04:28:00.526Z,101665.50
2023-09-18T04:30:27.021Z,101665.28
2023-09-18T04:32:53.821Z,101674.56
2023-09-18T04:35:20.443Z,101677.56
2023-09-18T04:37:47.396Z,101677.97
2023-09-18T04:40:14.123Z,101675.31
2023-09-18T04:42:40.740Z,101664.69
2023-09-18T04:45:07.509Z,101660.53
2023-09-18T04:47:34.389Z,101645.50
2023-09-18T04:50:01.343Z,101640.78
2023-09-18T04:52:28.052Z,101639.72
2023-09-18T04:54:54.640Z,101640.28
2023-09-18T04:57:21.121Z,101640.00
2023-09-18T04:59:49.998Z,101645.13
2023-09-18T05:02:22.356Z,101621.91
2023-09-18T05:04:48.867Z,101610.75
2023-09-18T05:07:15.381Z,101612.91
2023-09-18T05:09:41.806Z,101621.34
2023-09-18T05:12:08.199Z,101616.78
2023-09-18T05:14:34.723Z,101617.16
2023-09-18T05:17:01.229Z,101614.19
2023-09-18T05:19:27.678Z,101615.16
2023-09-18T05:21:54.163Z,101621.50
2023-09-18T05:24:20.882Z,101615.44
2023-09-18T05:26:47.427Z,101619.88
2023-09-18T05:29:13.987Z,101620.75
2023-09-18T05:31:40.705Z,101623.38
2023-09-18T05:34:07.504Z,101621.72
2023-09-18T05:36:34.111Z,101609.19
2023-09-18T05:39:00.718Z,101613.75
2023-09-18T05:41:27.209Z,101626.03
2023-09-18T05:43:53.891Z,101625.19
2023-09-18T05:46:20.385Z,101624.44
2023-09-18T05:48:47.029Z,101601.41
2023-09-18T05:51:13.522Z,101583.88
2023-09-18T05:53:40.113Z,101578.97
2023-09-18T05:56:06.777Z,101590.72
2023-09-18T05:58:33.446Z,101609.13
2023-09-18T06:01:00.044Z,101609.00
2023-09-18T06:03:26.829Z,101617.44
2023-09-18T06:05:53.573Z,101608.03
2023-09-18T06:08:20.298Z,101611.13
2023-09-18T06:10:46.852Z,101606.28
2023-09-18T06:13:13.388Z,101612.81
2023-09-18T06:15:40.018Z,101615.69
2023-09-18T06:18:06.638Z,101620.00
2023-09-18T06:20:33.540Z,101621.75
2023-09-18T06:23:00.192Z,101619.84
2023-09-18T06:25:26.826Z,101620.94
2023-09-18T06:27:53.645Z,101624.47
2023-09-18T06:30:20.325Z,101620.00
2023-09-18T06:32:47.379Z,101623.56
2023-09-18T06:35:14.306Z,101630.69
2023-09-18T06:37:41.041Z,101619.81
2023-09-18T06:40:07.844Z,101614.28
2023-09-18T06:42:34.564Z,101623.97
2023-09-18T06:45:01.509Z,101631.19
2023-09-18T06:47:28.357Z,101627.16
2023-09-18T06:49:56.030Z,101630.31
2023-09-18T06:52:25.882Z,101627.66
2023-09-18T06:54:52.713Z,101624.44
2023-09-18T06:57:19.660Z,101615.72
2023-09-18T06:59:46.307Z,101618.19
2023-09-18T07:02:12.910Z,101622.47
2023-09-18T07:04:40.029Z,101611.19
2023-09-18T07:07:06.608Z,101626.50
2023-09-18T07:09:35.070Z,101630.88
2023-09-18T07:12:03.716Z,101635.03
2023-09-18T07:14:30.262Z,101637.38
2023-09-18T07:16:57.458Z,101640.28
2023-09-18T07:19:24.557Z,101637.13
2023-09-18T07:21:51.695Z,101638.06
2023-09-18T07:24:18.377Z,101637.19
2023-09-18T07:26:45.456Z,101623.44
2023-09-18T07:29:12.510Z,101615.34
2023-09-18T07:31:38.974Z,101590.72
2023-09-18T07:34:06.732Z,101582.66
2023-09-18T07:36:33.163Z,101595.16
2023-09-18T07:38:59.579Z,101581.78
2023-09-18T07:41:26.001Z,101576.63
2023-09-18T07:43:52.421Z,101578.69
2023-09-18T07:46:18.868Z,101571.31
2023-09-18T07:48:45.399Z,101563.47
2023-09-18T07:53:41.249Z,101559.88
2023-09-18T07:56:08.223Z,101559.16
2023-09-18T07:58:34.984Z,101559.53
2023-09-18T08:01:01.959Z,101557.47
2023-09-18T08:03:28.830Z,101563.91
2023-09-18T08:05:55.472Z,101557.97
2023-09-18T08:08:22.188Z,101557.84
2023-09-18T08:10:48.935Z,101566.66
2023-09-18T08:13:15.492Z,101570.06
2023-09-18T08:15:42.398Z,101582.91
2023-09-18T08:18:09.325Z,101577.09
2023-09-18T08:20:38.914Z,101594.28
2023-09-18T08:23:05.829Z,101598.34
2023-09-18T08:25:32.565Z,101614.47
2023-09-18T08:27:59.354Z,101618.44
2023-09-18T08:30:26.183Z,101619.31
2023-09-18T08:32:53.226Z,101643.53
2023-09-18T08:35:20.296Z,101657.75
2023-09-18T08:37:47.612Z,101659.13
2023-09-18T08:40:14.720Z,101667.94
2023-09-18T08:42:42.381Z,101669.31
2023-09-18T08:45:09.029Z,101665.50
2023-09-18T08:47:35.656Z,101660.16
2023-09-18T08:50:02.399Z,101653.16
2023-09-18T08:52:29.359Z,101649.66
2023-09-18T08:54:56.365Z,101645.16
2023-09-18T08:57:22.798Z,101647.16
2023-09-18T08:59:49.684Z,101651.56
2023-09-18T09:02:16.778Z,101661.47
2023-09-18T09:04:43.422Z,101661.66
2023-09-18T09:07:10.264Z,101655.31
2023-09-18T09:09:36.789Z,101655.91
2023-09-18T09:12:03.652Z,101664.81
2023-09-18T09:14:30.609Z,101663.53
2023-09-18T09:16:57.328Z,101660.16
2023-09-18T09:19:24.324Z,101665.63
2023-09-18T09:21:51.118Z,101663.50
2023-09-18T09:24:17.853Z,101649.00
2023-09-18T09:26:44.748Z,101630.09
2023-09-18T09:29:11.977Z,101622.06
2023-09-18T09:31:39.254Z,101624.00
2023-09-18T09:34:06.297Z,101617.22
2023-09-18T09:36:32.910Z,101618.41
2023-09-18T09:39:00.171Z,101602.44
2023-09-18T09:41:27.454Z,101599.28
2023-09-18T09:43:54.527Z,101607.75
2023-09-18T09:46:21.383Z,101581.47
2023-09-18T09:48:48.182Z,101601.81
2023-09-18T09:51:15.042Z,101602.78
2023-09-18T09:53:42.081Z,101587.72
2023-09-18T09:56:08.601Z,101606.06
2023-09-18T09:58:35.371Z,101609.38
2023-09-18T10:01:02.403Z,101613.06
2023-09-18T10:03:29.688Z,101612.38
2023-09-18T10:05:56.247Z,101609.66
2023-09-18T10:08:23.277Z,101597.91
2023-09-18T10:10:49.938Z,101596.63
2023-09-18T10:13:16.920Z,101597.31
2023-09-18T10:15:44.069Z,101593.56
2023-09-18T10:18:10.841Z,101587.16
2023-09-18T10:20:37.394Z,101575.31
2023-09-18T10:23:03.762Z,101576.72
2023-09-18T10:25:30.095Z,101577.16
2023-09-18T10:27:56.415Z,101581.16
2023-09-18T10:30:22.689Z,101565.91
2023-09-18T10:32:49.072Z,101566.47
2023-09-18T10:35:15.456Z,101556.47
2023-09-18T10:37:41.777Z,101567.03
2023-09-18T10:40:08.254Z,101547.44
2023-09-18T10:42:35.105Z,101544.19
2023-09-18T10:45:01.653Z,101541.09
2023-09-18T10:47:28.627Z,101541.09
2023-09-18T10:49:55.133Z,101540.25
2023-09-18T10:52:21.440Z,101537.00
2023-09-18T10:54:47.739Z,101537.84
2023-09-18T10:57:14.031Z,101534.31
2023-09-18T10:59:40.358Z,101527.69
2023-09-18T11:02:06.754Z,101524.84
2023-09-18T11:04:33.622Z,101527.25
2023-09-18T11:07:00.286Z,101531.91
2023-09-18T11:09:26.676Z,101528.38
2023-09-18T11:11:53.447Z,101527.09
2023-09-18T11:14:20.440Z,101527.97
2023-09-18T11:16:47.595Z,101524.00
2023-09-18T11:19:14.457Z,101519.03
2023-09-18T11:21:40.901Z,101524.81
2023-09-18T11:24:07.296Z,101527.19
2023-09-18T11:26:33.757Z,101529.47
2023-09-18T11:29:00.171Z,101524.66
2023-09-18T11:31:27.148Z,101520.13
2023-09-18T11:33:53.851Z,101535.09
2023-09-18T11:36:20.702Z,101527.88
2023-09-18T11:38:47.581Z,101526.59
2023-09-18T11:41:14.075Z,101535.94
2023-09-18T11:43:40.980Z,101536.50
2023-09-18T11:46:07.919Z,101542.56
2023-09-18T11:48:34.872Z,101523.78
2023-09-18T11:51:01.602Z,101517.56
2023-09-18T11:53:28.290Z,101526.03
2023-09-18T11:55:54.702Z,101535.47
2023-09-18T11:58:21.690Z,101537.84
2023-09-18T12:00:48.591Z,101537.41
2023-09-18T12:03:15.601Z,101535.97
2023-09-18T12:05:42.941Z,101517.72
2023-09-18T12:08:09.411Z,101509.69
2023-09-18T12:10:36.204Z,101481.00
2023-09-18T12:13:03.229Z,101475.50
2023-09-18T12:15:29.792Z,101460.94
2023-09-18T12:17:57.036Z,101464.03
2023-09-18T12:20:23.895Z,101470.47
2023-09-18T12:22:50.900Z,101470.88
2023-09-18T12:25:17.699Z,101471.00
2023-09-18T12:27:44.361Z,101457.06
2023-09-18T12:30:11.137Z,101450.63
2023-09-18T12:32:37.963Z,101438.00
2023-09-18T12:35:04.890Z,101427.53
2023-09-18T12:37:31.637Z,101422.16
2023-09-18T12:39:58.569Z,101422.84
2023-09-18T12:42:25.603Z,101423.00
2023-09-18T12:44:52.506Z,101419.63
2023-09-18T12:47:19.158Z,101432.97
2023-09-18T12:49:46.126Z,101414.47
2023-09-18T12:52:12.658Z,101401.28
2023-09-18T12:54:39.652Z,101404.22
2023-09-18T12:57:06.336Z,101409.75
2023-09-18T12:59:33.132Z,101406.75
2023-09-18T13:01:59.547Z,101409.44
2023-09-18T13:04:26.117Z,101408.38
2023-09-18T13:06:52.500Z,101407.34
2023-09-18T13:09:19.035Z,101409.88
2023-09-18T13:11:45.663Z,101428.72
2023-09-18T13:14:11.998Z,101441.09
2023-09-18T13:16:38.291Z,101428.75
2023-09-18T13:19:04.580Z,101424.13
2023-09-18T13:21:30.861Z,101432.47
2023-09-18T13:23:57.574Z,101427.66
2023-09-18T13:26:24.399Z,101429.66
2023-09-18T13:28:51.462Z,101417.09
2023-09-18T13:31:18.393Z,101421.28
2023-09-18T13:33:45.184Z,101420.91
2023-09-18T13:36:12.153Z,101420.66
2023-09-18T13:38:38.888Z,101421.13
2023-09-18T13:41:05.957Z,101413.53
2023-09-18T13:43:32.747Z,101416.00
2023-09-18T13:45:59.638Z,101410.50
2023-09-18T13:48:26.133Z,101420.22
2023-09-18T13:50:52.912Z,101407.00
2023-09-18T13:53:19.655Z,101396.59
2023-09-18T13:55:46.018Z,101384.19
2023-09-18T13:58:12.308Z,101369.97
2023-09-18T14:00:38.835Z,101363.19
2023-09-18T14:03:06.098Z,101379.66
2023-09-18T14:05:33.166Z,101369.53
2023-09-18T14:07:59.982Z,101364.16
2023-09-18T14:10:27.005Z,101379.34
2023-09-18T14:12:54.012Z,101382.72
2023-09-18T14:15:20.813Z,101373.16
2023-09-18T14:17:47.628Z,101380.31
2023-09-18T14:20:14.590Z,101383.13
2023-09-18T14:22:41.333Z,101384.81
2023-09-18T14:25:08.540Z,101391.88
2023-09-18T14:27:35.423Z,101392.53
2023-09-18T14:30:02.272Z,101383.09
2023-09-18T14:32:29.083Z,101386.16
2023-09-18T14:34:56.264Z,101391.19
2023-09-18T14:37:23.176Z,101388.09
2023-09-18T14:39:49.915Z,101389.94
2023-09-18T14:42:16.749Z,101379.38
2023-09-18T14:44:43.627Z,101370.19
2023-09-18T14:47:10.349Z,101377.66
2023-09-18T14:49:37.169Z,101387.91
2023-09-18T14:52:03.978Z,101396.47
2023-09-18T14:54:30.780Z,101403.88
2023-09-18T14:56:57.873Z,101395.88
2023-09-18T14:59:39.875Z,101387.44
2023-09-18T15:02:08.448Z,101395.06
2023-09-18T15:04:35.267Z,101384.38
2023-09-18T15:07:02.112Z,101377.34
2023-09-18T15:09:28.955Z,101361.19
2023-09-18T15:11:55.768Z,101349.06
2023-09-18T15:14:22.776Z,101351.84
2023-09-18T15:16:49.524Z,101350.75
2023-09-18T15:19:18.312Z,101346.13
2023-09-18T15:21:46.995Z,101338.75
2023-09-18T15:24:13.415Z,101330.81
2023-09-18T15:26:40.337Z,101329.81
2023-09-18T15:29:07.378Z,101316.56
2023-09-18T15:31:34.373Z,101320.03
2023-09-18T15:34:01.088Z,101315.22
2023-09-18T15:36:28.033Z,101313.78
2023-09-18T15:38:55.125Z,101327.81
2023-09-18T15:41:21.962Z,101327.63
2023-09-18T15:43:48.765Z,101333.53
2023-09-18T15:46:15.699Z,101334.75
2023-09-18T15:48:42.286Z,101326.16
2023-09-18T15:51:09.042Z,101343.28
2023-09-18T15:53:35.912Z,101335.00
2023-09-18T15:56:02.902Z,101329.75
2023-09-18T15:58:29.846Z,101335.09
2023-09-18T16:00:56.901Z,101332.72
2023-09-18T16:03:23.710Z,101319.88
2023-09-18T16:05:50.684Z,101320.84
2023-09-18T16:08:17.586Z,101309.22
2023-09-18T16:10:44.266Z,101318.47
2023-09-18T16:13:10.822Z,101316.91
2023-09-18T16:15:37.166Z,101319.84
2023-09-18T16:18:04.129Z,101313.94
2023-09-18T16:20:30.800Z,101313.78
2023-09-18T16:22:57.462Z,101309.41
2023-09-18T16:25:25.083Z,101305.78
2023-09-18T16:27:52.033Z,101293.41
2023-09-18T16:30:19.204Z,101294.00
2023-09-18T16:32:45.995Z,101293.56
2023-09-18T16:35:12.848Z,101282.94
2023-09-18T16:37:40.094Z,101281.44
2023-09-18T16:40:06.783Z,101271.84
2023-09-18T16:42:33.993Z,101266.53
2023-09-18T16:45:00.804Z,101273.31
2023-09-18T16:47:27.906Z,101284.72
2023-09-18T16:49:54.946Z,101284.13
2023-09-18T16:52:21.954Z,101292.84
2023-09-18T16:54:50.415Z,101291.25
2023-09-18T16:57:17.473Z,101303.03
2023-09-18T16:59:44.456Z,101298.53
2023-09-18T17:02:11.804Z,101293.56
2023-09-18T17:04:39.272Z,101290.31
2023-09-18T17:07:06.002Z,101294.94
2023-09-18T17:09:32.920Z,101298.72
2023-09-18T17:11:59.726Z,101313.34
2023-09-18T17:14:26.371Z,101311.34
2023-09-18T17:16:52.927Z,101313.84
2023-09-18T17:19:19.609Z,101304.69
2023-09-18T17:21:46.257Z,101310.66
2023-09-18T17:24:13.206Z,101309.38
2023-09-18T17:26:39.863Z,101303.84
2023-09-18T17:29:06.725Z,101306.16
2023-09-18T17:31:33.500Z,101314.56
2023-09-18T17:34:00.336Z,101320.53
2023-09-18T17:36:27.582Z,101324.00
2023-09-18T17:38:54.206Z,101311.31
2023-09-18T17:41:20.943Z,101315.34
2023-09-18T17:43:47.768Z,101328.34
2023-09-18T17:46:14.678Z,101329.09
2023-09-18T17:48:41.814Z,101327.06
2023-09-18T17:51:08.638Z,101332.78
2023-09-18T17:53:35.567Z,101342.81
2023-09-18T17:56:02.571Z,101330.97
2023-09-18T17:58:29.379Z,101348.06
2023-09-18T18:00:56.089Z,101352.69
2023-09-18T18:03:23.105Z,101396.28
2023-09-18T18:05:50.225Z,101398.50
2023-09-18T18:08:17.452Z,101402.25
2023-09-18T18:10:44.280Z,101404.03
2023-09-18T18:13:10.954Z,101408.66
2023-09-18T18:15:37.776Z,101419.44
2023-09-18T18:18:04.768Z,101419.44
2023-09-18T18:20:31.578Z,101428.53
2023-09-18T18:22:58.209Z,101428.66
2023-09-18T18:25:25.011Z,101436.66
2023-09-18T18:27:51.607Z,101441.03
2023-09-18T18:30:18.586Z,101442.84
2023-09-18T18:32:45.697Z,101450.09
2023-09-18T18:35:12.714Z,101456.41
2023-09-18T18:37:39.174Z,101450.25
2023-09-18T18:40:06.202Z,101449.50
2023-09-18T18:42:33.714Z,101448.66
2023-09-18T18:45:00.771Z,101457.50
2023-09-18T18:47:27.765Z,101464.50
2023-09-18T18:49:54.156Z,101457.50
2023-09-18T18:52:20.832Z,101463.56
2023-09-18T18:54:47.571Z,101465.97
2023-09-18T18:57:14.524Z,101466.69
2023-09-18T18:59:41.009Z,101455.09
2023-09-18T19:02:07.498Z,101453.25
2023-09-18T19:04:34.430Z,101451.44
2023-09-18T19:07:01.013Z,101454.22
2023-09-18T19:09:27.880Z,101455.19
2023-09-18T19:11:54.798Z,101450.56
2023-09-18T19:14:21.154Z,101451.19
2023-09-18T19:16:47.543Z,101448.53
2023-09-18T19:19:13.820Z,101445.75
2023-09-18T19:21:40.064Z,101433.00
2023-09-18T19:24:06.829Z,101441.38
2023-09-18T19:26:33.684Z,101435.69
2023-09-18T19:29:00.748Z,101429.34
2023-09-18T19:31:27.723Z,101441.84
2023-09-18T19:33:54.399Z,101441.00
2023-09-18T19:36:21.224Z,101433.38
2023-09-18T19:38:47.663Z,101434.31
2023-09-18T19:41:14.394Z,101432.53
2023-09-18T19:43:41.342Z,101428.03
2023-09-18T19:46:10.040Z,101427.78
2023-09-18T19:48:38.490Z,101434.69
2023-09-18T19:51:05.483Z,101423.91
2023-09-18T19:53:32.523Z,101429.13
2023-09-18T19:55:59.222Z,101431.53
2023-09-18T19:58:26.210Z,101430.13
2023-09-18T20:00:53.105Z,101430.34
2023-09-18T20:03:19.653Z,101436.13
2023-09-18T20:05:46.403Z,101439.56
2023-09-18T20:08:13.151Z,101458.09
2023-09-18T20:10:39.611Z,101444.63
2023-09-18T20:13:06.289Z,101441.09
2023-09-18T20:15:33.033Z,101441.25
2023-09-18T20:17:59.883Z,101437.00
2023-09-18T20:20:26.848Z,101437.97
2023-09-18T20:22:53.550Z,101438.84
2023-09-18T20:25:20.217Z,101446.47
2023-09-18T20:27:47.324Z,101447.69
2023-09-18T20:30:14.068Z,101450.59
2023-09-18T20:32:41.311Z,101452.63
2023-09-18T20:35:08.221Z,101457.50
2023-09-18T20:37:34.900Z,101451.31
2023-09-18T20:40:01.440Z,101445.25
2023-09-18T20:42:27.973Z,101444.41
2023-09-18T20:44:54.431Z,101446.97
2023-09-18T20:47:21.385Z,101444.31
2023-09-18T20:49:47.923Z,101446.84
2023-09-18T20:52:14.947Z,101442.59
2023-09-18T20:54:42.004Z,101442.72
2023-09-18T20:57:08.490Z,101445.38
2023-09-18T20:59:44.824Z,101449.72
2023-09-18T21:02:11.932Z,101446.97
2023-09-18T21:04:39.028Z,101443.56
2023-09-18T21:07:05.774Z,101443.91
2023-09-18T21:09:32.746Z,101436.84
2023-09-18T21:11:59.550Z,101433.13
2023-09-18T21:14:26.271Z,101433.13
2023-09-18T21:16:53.213Z,101435.81
2023-09-18T21:19:19.880Z,101442.84
2023-09-18T21:21:46.505Z,101442.59
2023-09-18T21:24:13.532Z,101445.25
2023-09-18T21:26:40.324Z,101437.50
2023-09-18T21:29:07.456Z,101444.78
2023-09-18T21:31:34.297Z,101448.16
2023-09-18T21:34:00.889Z,101441.13
2023-09-18T21:36:27.342Z,101441.13
2023-09-18T21:38:53.773Z,101450.09
2023-09-18T21:41:20.087Z,101443.56
2023-09-18T21:43:46.924Z,101444.41
2023-09-18T21:46:13.403Z,101440.78
2023-09-18T21:48:39.986Z,101436.41
2023-09-18T21:51:07.027Z,101441.84
2023-09-18T21:56:02.672Z,101436.97
2023-09-18T21:58:29.112Z,101438.78
2023-09-18T22:00:55.426Z,101441.34
2023-09-18T22:03:22.266Z,101436.78
2023-09-18T22:05:49.026Z,101434.00
2023-09-18T22:08:16.192Z,101434.72
2023-09-18T22:10:42.809Z,101430.25
2023-09-18T22:13:09.359Z,101425.75
2023-09-18T22:15:35.906Z,101423.22
2023-09-18T22:18:02.603Z,101425.75
2023-09-18T22:20:29.334Z,101427.19
2023-09-18T22:22:56.134Z,101423.47
2023-09-18T22:25:23.099Z,101420.06
2023-09-18T22:27:49.797Z,101427.09
2023-09-18T22:30:16.727Z,101426.38
2023-09-18T22:32:43.657Z,101422.13
2023-09-18T22:35:10.631Z,101421.28
2023-09-18T22:37:37.814Z,101426.59
2023-09-18T22:40:05.025Z,101415.94
2023-09-18T22:42:31.869Z,101415.09
2023-09-18T22:44:59.053Z,101416.81
2023-09-18T22:47:36.489Z,101406.38
2023-09-18T22:50:03.870Z,101412.69
2023-09-18T22:52:30.721Z,101417.28
2023-09-18T22:54:57.848Z,101416.44
2023-09-18T22:57:24.586Z,101402.34
2023-09-18T22:59:51.581Z,101401.50
2023-09-18T23:02:18.668Z,101405.00
2023-09-18T23:04:45.739Z,101417.38
2023-09-18T23:07:12.830Z,101416.66
2023-09-18T23:09:39.968Z,101417.59
2023-09-18T23:12:07.419Z,101413.34
2023-09-18T23:14:34.645Z,101415.19
2023-09-18T23:17:03.985Z,101415.06
2023-09-18T23:19:31.017Z,101414.22
2023-09-18T23:21:57.812Z,101410.81
2023-09-18T23:24:24.511Z,101419.06
2023-09-18T23:26:51.453Z,101425.13
2023-09-18T23:29:18.573Z,101426.94
2023-09-18T23:31:45.434Z,101427.78
2023-09-18T23:34:12.296Z,101427.78
2023-09-18T23:36:39.637Z,101428.50
2023-09-18T23:39:06.373Z,101428.59
2023-09-18T23:41:50.616Z,101431.28
2023-09-18T23:44:19.237Z,101430.53
2023-09-18T23:46:46.070Z,101435.03
2023-09-18T23:49:12.770Z,101438.66
2023-09-18T23:51:39.903Z,101428.88
2023-09-18T23:54:06.612Z,101426.94
2023-09-18T23:56:33.373Z,101434.91
2023-09-18T23:58:59.952Z,101432.38
